Terminal Aerodrome Forecast
Issued by NWS North Platte, NE

Home | Current Version | Previous Version | Graphics & Text | Print | Product List | Glossary On
Versions: 1 2 3 4 5 6 7 8 9 10 11 12 13 14 15 16 17
871
FTUS43 KLBF 221519 AAA
TAFVTN
TAF AMD
KVTN 221519Z 2215/2312 31014G21KT P6SM BKN140
      TEMPO 2215/2217 31014G21KT P6SM -RA OVC080
     FM221800 32014G21KT P6SM VCTS BKN060CB
      TEMPO 2219/2223 5SM -TSRA BKN060CB
     FM230200 33009KT P6SM BKN100
     FM230500 32007KT P6SM SCT080
     FM230800 31008KT P6SM BKN060=

USA.gov is the U.S. government's official web portal to all federal, state and local government web resources and services.